Terminal Aerodrome Forecast
Issued by NWS St Louis, MO

Home | Current Version | Previous Version | Text Only | Print | Product List | Glossary On
Versions: 1 2 3 4 5 6 7 8 9 10 11 12 13 14 15 16 17 18 19 20 21 22 23 24 25 26 27
677
FTUS43 KLSX 250255 AAA
TAFSTL
TAF AMD
KSTL 250255Z 2503/2606 14006KT P6SM FEW250
     FM251500 20005KT P6SM SCT050
     FM251900 23008KT P6SM BKN050
     FM260000 28007KT 3SM -SHRA VCTS OVC045CB=

USA.gov is the U.S. government's official web portal to all federal, state and local government web resources and services.